createdAt,value
2018-10-11T00:01:51.681Z,94.80
2018-10-11T00:04:20.161Z,94.40
2018-10-11T00:06:48.843Z,94.00
2018-10-11T00:09:17.215Z,94.20
2018-10-11T00:11:45.724Z,94.80
2018-10-11T00:14:14.074Z,95.20
2018-10-11T00:16:42.611Z,95.50
2018-10-11T00:19:11.021Z,95.70
2018-10-11T00:21:39.859Z,95.90
2018-10-11T00:24:08.328Z,96.30
2018-10-11T00:26:36.750Z,96.20
2018-10-11T00:29:05.153Z,96.60
2018-10-11T00:31:33.641Z,96.70
2018-10-11T00:34:02.045Z,97.40
2018-10-11T00:36:30.455Z,97.70
2018-10-11T00:38:58.890Z,97.70
2018-10-11T00:41:27.344Z,97.90
2018-10-11T00:43:55.725Z,98.00
2018-10-11T00:46:24.125Z,98.00
2018-10-11T00:48:52.539Z,98.20
2018-10-11T00:51:21.538Z,98.20
2018-10-11T00:53:49.931Z,98.60
2018-10-11T00:56:18.384Z,98.80
2018-10-11T00:58:46.873Z,98.80
2018-10-11T01:01:15.249Z,98.90
2018-10-11T01:03:43.629Z,99.10
2018-10-11T01:06:12.172Z,98.90
2018-10-11T01:08:40.712Z,98.80
2018-10-11T01:11:09.561Z,98.50
2018-10-11T01:13:38.274Z,98.10
2018-10-11T01:16:06.673Z,98.00
2018-10-11T01:18:35.133Z,98.20
2018-10-11T01:21:03.516Z,98.00
2018-10-11T01:23:31.924Z,97.80
2018-10-11T01:26:00.372Z,97.70
2018-10-11T01:28:28.903Z,97.70
2018-10-11T01:31:02.780Z,97.70
2018-10-11T01:33:31.125Z,97.80
2018-10-11T01:35:59.595Z,97.80
2018-10-11T01:38:28.051Z,97.80
2018-10-11T01:40:56.480Z,97.90
2018-10-11T01:43:24.870Z,98.00
2018-10-11T01:45:53.333Z,98.00
2018-10-11T01:48:21.795Z,98.00
2018-10-11T01:50:50.144Z,96.70
2018-10-11T01:53:18.627Z,96.30
2018-10-11T01:55:47.012Z,94.70
2018-10-11T01:58:15.416Z,94.50
2018-10-11T02:00:44.134Z,95.70
2018-10-11T02:03:12.685Z,97.80
2018-10-11T02:05:41.067Z,99.50
2018-10-11T02:08:09.458Z,99.40
2018-10-11T02:10:37.849Z,99.80
2018-10-11T02:13:06.782Z,99.80
2018-10-11T02:15:35.188Z,99.60
2018-10-11T02:18:03.570Z,98.40
2018-10-11T02:20:31.956Z,98.00
2018-10-11T02:23:00.416Z,98.60
2018-10-11T02:25:28.844Z,99.80
2018-10-11T02:27:57.295Z,99.80
2018-10-11T02:30:25.729Z,99.80
2018-10-11T02:32:54.131Z,99.70
2018-10-11T02:35:22.548Z,99.40
2018-10-11T02:37:51.045Z,99.30
2018-10-11T02:40:19.461Z,99.50
2018-10-11T02:42:47.901Z,99.80
2018-10-11T02:45:16.340Z,99.80
2018-10-11T02:47:51.177Z,99.80
2018-10-11T02:50:19.616Z,99.80
2018-10-11T02:52:48.097Z,99.80
2018-10-11T02:55:21.537Z,99.80
2018-10-11T02:58:01.685Z,99.60
2018-10-11T03:00:33.422Z,99.50
2018-10-11T03:03:09.704Z,99.60
2018-10-11T03:05:40.537Z,99.80
2018-10-11T03:08:10.836Z,99.80
2018-10-11T03:10:39.904Z,99.80
2018-10-11T03:13:10.177Z,99.80
2018-10-11T03:15:38.729Z,99.80
2018-10-11T03:18:07.168Z,99.80
2018-10-11T03:20:35.574Z,99.80
2018-10-11T03:23:03.997Z,99.80
2018-10-11T03:25:32.451Z,99.80
2018-10-11T03:28:00.876Z,99.80
2018-10-11T03:30:30.116Z,99.80
2018-10-11T03:32:59.111Z,99.80
2018-10-11T03:35:28.177Z,99.80
2018-10-11T03:37:57.188Z,99.80
2018-10-11T03:40:26.132Z,99.80
2018-10-11T03:42:54.835Z,99.80
2018-10-11T03:45:23.257Z,99.80
2018-10-11T03:47:51.700Z,99.80
2018-10-11T03:50:20.138Z,99.80
2018-10-11T03:52:49.391Z,99.80
2018-10-11T03:55:17.837Z,99.80
2018-10-11T03:57:46.227Z,99.80
2018-10-11T04:00:14.696Z,99.80
2018-10-11T04:02:43.083Z,99.80
2018-10-11T04:05:11.625Z,99.80
2018-10-11T04:07:40.670Z,99.80
2018-10-11T04:10:09.766Z,99.80
2018-10-11T04:12:38.195Z,99.80
2018-10-11T04:15:06.715Z,99.80
2018-10-11T04:17:35.176Z,99.80
2018-10-11T04:20:03.741Z,99.80
2018-10-11T04:22:32.195Z,99.80
2018-10-11T04:25:00.590Z,99.80
2018-10-11T04:27:29.036Z,99.80
2018-10-11T04:30:00.294Z,99.80
2018-10-11T04:32:28.754Z,99.80
2018-10-11T04:34:57.282Z,99.80
2018-10-11T04:37:25.702Z,99.80
2018-10-11T04:39:55.164Z,99.80
2018-10-11T04:42:24.325Z,99.80
2018-10-11T04:44:53.292Z,99.80
2018-10-11T04:47:21.657Z,99.80
2018-10-11T04:49:50.593Z,99.80
2018-10-11T04:52:19.008Z,99.80
2018-10-11T04:54:49.252Z,99.80
2018-10-11T04:57:18.797Z,99.80
2018-10-11T04:59:47.397Z,99.80
2018-10-11T05:02:15.798Z,99.80
2018-10-11T05:04:44.181Z,99.80
2018-10-11T05:07:12.968Z,99.80
2018-10-11T05:09:41.476Z,99.80
2018-10-11T05:12:10.555Z,99.80
2018-10-11T05:14:39.432Z,99.80
2018-10-11T05:17:08.587Z,99.80
2018-10-11T05:19:38.761Z,99.80
2018-10-11T05:22:07.368Z,99.80
2018-10-11T05:24:37.364Z,99.80
2018-10-11T05:27:06.856Z,99.80
2018-10-11T05:29:35.327Z,99.80
2018-10-11T05:32:06.777Z,99.80
2018-10-11T05:34:35.129Z,99.80
2018-10-11T05:37:03.571Z,99.80
2018-10-11T05:39:32.198Z,99.80
2018-10-11T05:42:00.987Z,99.80
2018-10-11T05:44:29.805Z,99.80
2018-10-11T05:46:58.397Z,99.80
2018-10-11T05:49:27.397Z,99.80
2018-10-11T05:51:55.911Z,99.80
2018-10-11T05:54:24.370Z,99.80
2018-10-11T05:56:52.921Z,99.80
2018-10-11T05:59:21.380Z,99.80
2018-10-11T06:01:49.854Z,99.80
2018-10-11T06:04:24.520Z,99.80
2018-10-11T06:06:52.968Z,99.80
2018-10-11T06:09:21.584Z,99.80
2018-10-11T06:11:50.106Z,99.80
2018-10-11T06:14:18.602Z,99.80
2018-10-11T06:16:47.071Z,99.80
2018-10-11T06:19:15.975Z,99.80
2018-10-11T06:21:45.099Z,99.80
2018-10-11T06:24:13.564Z,99.80
2018-10-11T06:26:42.336Z,99.80
2018-10-11T06:29:11.081Z,99.80
2018-10-11T06:31:39.674Z,99.80
2018-10-11T06:34:08.189Z,99.80
2018-10-11T06:36:36.787Z,99.80
2018-10-11T06:39:07.652Z,99.80
2018-10-11T06:41:36.096Z,99.80
2018-10-11T06:44:05.065Z,99.80
2018-10-11T06:46:34.757Z,99.80
2018-10-11T06:49:03.289Z,99.80
2018-10-11T06:51:31.871Z,99.80
2018-10-11T06:54:00.819Z,99.80
2018-10-11T06:56:29.212Z,99.80
2018-10-11T06:58:57.668Z,99.80
2018-10-11T07:01:26.108Z,99.80
2018-10-11T07:03:54.564Z,99.80
2018-10-11T07:06:22.978Z,99.80
2018-10-11T07:08:51.468Z,98.20
2018-10-11T07:11:20.706Z,96.30
2018-10-11T07:13:49.213Z,96.20
2018-10-11T07:16:17.576Z,95.90
2018-10-11T07:18:45.957Z,96.60
2018-10-11T07:21:14.425Z,97.50
2018-10-11T07:23:42.790Z,98.10
2018-10-11T07:26:11.272Z,98.30
2018-10-11T07:28:39.661Z,99.00
2018-10-11T07:31:08.171Z,99.70
2018-10-11T07:33:36.616Z,99.80
2018-10-11T07:36:05.070Z,98.90
2018-10-11T07:38:33.466Z,96.70
2018-10-11T07:41:01.938Z,95.60
2018-10-11T07:43:30.238Z,95.30
2018-10-11T07:45:59.544Z,95.60
2018-10-11T07:48:27.991Z,95.80
2018-10-11T07:50:56.872Z,95.90
2018-10-11T07:53:25.291Z,95.90
2018-10-11T07:55:53.722Z,95.70
2018-10-11T07:58:22.128Z,95.60
2018-10-11T08:00:50.568Z,95.30
2018-10-11T08:03:19.012Z,95.20
2018-10-11T08:05:47.355Z,94.70
2018-10-11T08:08:15.757Z,94.50
2018-10-11T08:10:44.158Z,93.90
2018-10-11T08:13:12.573Z,93.60
2018-10-11T08:15:40.932Z,92.40
2018-10-11T08:18:09.336Z,92.40
2018-10-11T08:20:39.416Z,91.90
2018-10-11T08:23:07.678Z,91.40
2018-10-11T08:25:36.245Z,91.30
2018-10-11T08:28:04.443Z,91.30
2018-10-11T08:30:33.500Z,90.70
2018-10-11T08:33:01.968Z,90.40
2018-10-11T08:35:30.418Z,89.80
2018-10-11T08:37:59.083Z,88.90
2018-10-11T08:40:27.425Z,89.20
2018-10-11T08:42:55.814Z,88.80
2018-10-11T08:45:24.283Z,88.00
2018-10-11T08:47:52.695Z,87.00
2018-10-11T08:50:21.339Z,86.00
2018-10-11T08:52:49.716Z,84.70
2018-10-11T08:55:18.523Z,84.20
2018-10-11T08:57:46.927Z,83.70
2018-10-11T09:00:15.340Z,83.30
2018-10-11T09:02:43.792Z,83.30
2018-10-11T09:05:12.310Z,82.80
2018-10-11T09:07:40.763Z,82.80
2018-10-11T09:10:09.223Z,81.70
2018-10-11T09:12:37.708Z,82.00
2018-10-11T09:15:06.319Z,81.50
2018-10-11T09:17:34.708Z,80.60
2018-10-11T09:20:03.184Z,79.70
2018-10-11T09:22:31.636Z,78.50
2018-10-11T09:25:00.013Z,78.10
2018-10-11T09:27:29.173Z,77.80
2018-10-11T09:29:58.226Z,77.80
2018-10-11T09:32:26.642Z,76.80
2018-10-11T09:34:55.078Z,76.90
2018-10-11T09:37:23.548Z,75.90
2018-10-11T09:39:52.005Z,75.40
2018-10-11T09:42:20.415Z,75.10
2018-10-11T09:44:48.907Z,73.90
2018-10-11T09:47:17.467Z,74.00
2018-10-11T09:49:45.840Z,74.80
2018-10-11T09:52:14.519Z,74.60
2018-10-11T09:54:43.111Z,74.20
2018-10-11T09:57:16.837Z,73.10
2018-10-11T09:59:45.267Z,73.20
2018-10-11T10:02:14.094Z,72.80
2018-10-11T10:04:45.806Z,73.00
2018-10-11T10:07:14.300Z,72.90
2018-10-11T10:09:43.509Z,71.70
2018-10-11T10:12:12.519Z,72.10
2018-10-11T10:14:41.664Z,72.60
2018-10-11T10:17:10.430Z,71.00
2018-10-11T10:19:38.881Z,70.10
2018-10-11T10:22:07.396Z,71.00
2018-10-11T10:24:36.058Z,71.30
2018-10-11T10:27:04.483Z,70.30
2018-10-11T10:29:32.850Z,69.10
2018-10-11T10:32:01.965Z,69.10
2018-10-11T10:34:30.478Z,68.50
2018-10-11T10:36:58.933Z,67.50
2018-10-11T10:39:33.730Z,67.90
2018-10-11T10:42:02.181Z,66.40
2018-10-11T10:44:30.624Z,66.50
2018-10-11T10:46:59.092Z,66.80
2018-10-11T10:49:27.557Z,66.40
2018-10-11T10:51:56.018Z,65.50
2018-10-11T10:54:27.096Z,65.10
2018-10-11T10:56:55.816Z,64.00
2018-10-11T10:59:24.294Z,63.70
2018-10-11T11:01:52.864Z,64.00
2018-10-11T11:04:21.318Z,64.70
2018-10-11T11:06:49.788Z,64.10
2018-10-11T11:09:18.274Z,60.70
2018-10-11T11:11:53.950Z,54.90
2018-10-11T11:14:22.414Z,49.50
2018-10-11T11:16:50.826Z,45.90
2018-10-11T11:19:19.241Z,41.80
2018-10-11T11:21:47.623Z,39.90
2018-10-11T11:24:16.014Z,38.80
2018-10-11T11:26:44.430Z,38.40
2018-10-11T11:29:12.916Z,37.20
2018-10-11T11:31:42.615Z,36.60
2018-10-11T11:34:11.001Z,35.70
2018-10-11T11:36:39.388Z,37.00
2018-10-11T11:39:08.704Z,36.50
2018-10-11T11:41:37.283Z,35.50
2018-10-11T11:44:05.757Z,33.20
2018-10-11T11:46:34.829Z,33.40
2018-10-11T11:49:03.263Z,33.10
2018-10-11T11:51:31.719Z,33.00
2018-10-11T11:54:00.150Z,33.00
2018-10-11T11:56:28.530Z,33.40
2018-10-11T11:58:56.924Z,33.90
2018-10-11T12:01:25.337Z,35.10
2018-10-11T12:03:53.804Z,35.90
2018-10-11T12:06:22.292Z,36.00
2018-10-11T12:08:50.733Z,36.50
2018-10-11T12:11:19.134Z,35.70
2018-10-11T12:13:47.574Z,38.20
2018-10-11T12:16:15.980Z,40.10
2018-10-11T12:18:44.431Z,42.00
2018-10-11T12:21:12.845Z,41.50
2018-10-11T12:23:41.581Z,39.50
2018-10-11T12:26:10.075Z,38.00
2018-10-11T12:28:38.508Z,38.40
2018-10-11T12:31:07.078Z,40.70
2018-10-11T12:33:35.491Z,42.70
2018-10-11T12:36:04.840Z,44.30
2018-10-11T12:38:33.416Z,44.50
2018-10-11T12:41:02.689Z,44.70
2018-10-11T12:43:31.095Z,44.50
2018-10-11T12:45:59.528Z,45.20
2018-10-11T12:48:27.911Z,44.30
2018-10-11T12:50:56.302Z,44.80
2018-10-11T12:53:24.721Z,45.60
2018-10-11T12:55:53.187Z,46.90
2018-10-11T12:58:21.632Z,47.50
2018-10-11T13:00:50.015Z,50.40
2018-10-11T13:03:18.437Z,51.90
2018-10-11T13:05:46.772Z,52.90
2018-10-11T13:08:15.154Z,53.00
2018-10-11T13:10:43.597Z,52.70
2018-10-11T13:13:12.066Z,53.60
2018-10-11T13:15:40.508Z,53.10
2018-10-11T13:18:08.844Z,54.30
2018-10-11T13:20:37.351Z,54.50
2018-10-11T13:23:07.121Z,55.70
2018-10-11T13:25:33.917Z,54.70
2018-10-11T13:28:02.322Z,56.10
2018-10-11T13:30:30.716Z,56.00
2018-10-11T13:32:59.512Z,56.90
2018-10-11T13:35:27.895Z,56.10
2018-10-11T13:37:56.289Z,55.50
2018-10-11T13:40:24.709Z,55.30
2018-10-11T13:42:53.076Z,54.40
2018-10-11T13:45:21.587Z,56.00
2018-10-11T13:47:49.988Z,56.80
2018-10-11T13:50:18.393Z,57.80
2018-10-11T13:52:46.790Z,58.70
2018-10-11T13:55:15.799Z,59.40
2018-10-11T13:57:43.547Z,59.50
2018-10-11T14:00:11.984Z,59.40
2018-10-11T14:02:40.451Z,59.50
2018-10-11T14:05:08.956Z,60.10
2018-10-11T14:07:38.261Z,60.40
2018-10-11T14:10:06.845Z,60.80
2018-10-11T14:12:35.316Z,60.80
2018-10-11T14:15:03.897Z,60.40
2018-10-11T14:17:32.428Z,59.50
2018-10-11T14:20:00.805Z,59.90
2018-10-11T14:22:29.245Z,60.10
2018-10-11T14:24:57.653Z,59.30
2018-10-11T14:27:32.524Z,59.00
2018-10-11T14:30:00.958Z,59.40
2018-10-11T14:32:29.451Z,59.30
2018-10-11T14:34:57.877Z,58.70
2018-10-11T14:37:26.287Z,59.50
2018-10-11T14:39:54.721Z,60.70
2018-10-11T14:42:23.136Z,61.00
2018-10-11T14:44:51.496Z,60.90
2018-10-11T14:47:20.022Z,61.30
2018-10-11T14:49:48.432Z,61.50
2018-10-11T14:52:17.672Z,61.90
2018-10-11T14:54:46.133Z,62.20
2018-10-11T14:57:14.572Z,62.10
2018-10-11T14:59:42.910Z,61.70
2018-10-11T15:02:11.308Z,62.00
2018-10-11T15:04:39.704Z,62.40
2018-10-11T15:07:08.183Z,62.80
2018-10-11T15:09:36.585Z,63.20
2018-10-11T15:12:05.904Z,62.90
2018-10-11T15:14:34.315Z,63.00
2018-10-11T15:17:02.903Z,63.80
2018-10-11T15:19:31.336Z,64.60
2018-10-11T15:21:59.752Z,65.30
2018-10-11T15:24:28.179Z,65.60
2018-10-11T15:26:56.726Z,66.10
2018-10-11T15:29:25.267Z,66.20
2018-10-11T15:31:53.621Z,66.70
2018-10-11T15:34:22.008Z,67.00
2018-10-11T15:36:50.462Z,66.80
2018-10-11T15:39:18.897Z,67.00
2018-10-11T15:41:47.278Z,67.40
2018-10-11T15:44:15.678Z,68.00
2018-10-11T15:46:44.168Z,68.30
2018-10-11T15:49:12.554Z,68.40
2018-10-11T15:51:41.145Z,68.30
2018-10-11T15:54:09.591Z,68.00
2018-10-11T15:56:37.975Z,67.80
2018-10-11T15:59:06.452Z,68.60
2018-10-11T16:01:36.113Z,69.90
2018-10-11T16:04:05.149Z,71.00
2018-10-11T16:06:33.834Z,71.90
2018-10-11T16:09:02.399Z,72.80
2018-10-11T16:11:30.688Z,73.40
2018-10-11T16:13:59.093Z,73.60
2018-10-11T16:16:27.504Z,73.60
2018-10-11T16:18:55.945Z,74.20
2018-10-11T16:21:24.456Z,74.50
2018-10-11T16:23:52.985Z,74.60
2018-10-11T16:26:21.472Z,74.60
2018-10-11T16:28:49.897Z,74.30
2018-10-11T16:31:18.669Z,74.60
2018-10-11T16:33:47.379Z,75.00
2018-10-11T16:36:15.803Z,75.30
2018-10-11T16:38:44.264Z,75.80
2018-10-11T16:41:13.589Z,76.20
2018-10-11T16:43:42.965Z,76.30
2018-10-11T16:46:11.651Z,76.50
2018-10-11T16:48:40.624Z,76.70
2018-10-11T16:51:09.053Z,77.00
2018-10-11T16:53:37.712Z,77.80
2018-10-11T16:56:06.235Z,78.20
2018-10-11T16:58:34.569Z,79.20
2018-10-11T17:01:03.357Z,79.30
2018-10-11T17:03:32.752Z,79.40
2018-10-11T17:06:01.241Z,79.40
2018-10-11T17:08:29.616Z,79.30
2018-10-11T17:10:58.036Z,79.50
2018-10-11T17:13:26.429Z,79.50
2018-10-11T17:15:54.841Z,79.40
2018-10-11T17:18:23.679Z,79.20
2018-10-11T17:20:52.367Z,79.30
2018-10-11T17:23:20.760Z,80.10
2018-10-11T17:25:49.181Z,80.60
2018-10-11T17:28:17.617Z,80.80
2018-10-11T17:30:46.096Z,80.60
2018-10-11T17:33:14.509Z,80.50
2018-10-11T17:35:42.954Z,80.10
2018-10-11T17:38:11.792Z,80.10
2018-10-11T17:40:41.140Z,80.40
2018-10-11T17:43:09.544Z,80.40
2018-10-11T17:45:37.947Z,80.10
2018-10-11T17:48:06.807Z,80.00
2018-10-11T17:50:35.243Z,79.70
2018-10-11T17:53:03.716Z,79.50
2018-10-11T17:55:32.137Z,79.10
2018-10-11T17:58:00.582Z,79.90
2018-10-11T18:00:29.201Z,80.80
2018-10-11T18:02:57.618Z,79.90
2018-10-11T18:05:26.082Z,79.50
2018-10-11T18:07:54.497Z,78.90
2018-10-11T18:10:23.003Z,78.50
2018-10-11T18:17:55.049Z,78.90
2018-10-11T18:20:23.467Z,80.50
2018-10-11T18:22:52.734Z,81.10
2018-10-11T18:25:21.764Z,81.80
2018-10-11T18:27:50.176Z,82.30
2018-10-11T18:30:18.598Z,82.60
2018-10-11T18:32:47.792Z,82.90
2018-10-11T18:35:16.202Z,82.90
2018-10-11T18:37:44.620Z,82.70
2018-10-11T18:40:13.117Z,82.20
2018-10-11T18:42:41.841Z,82.20
2018-10-11T18:45:10.320Z,82.00
2018-10-11T18:47:38.729Z,82.00
2018-10-11T18:50:07.222Z,82.10
2018-10-11T18:52:35.653Z,82.20
2018-10-11T18:55:04.156Z,82.80
2018-10-11T18:57:32.616Z,83.00
2018-10-11T19:00:02.120Z,83.00
2018-10-11T19:02:30.636Z,83.20
2018-10-11T19:04:59.067Z,83.10
2018-10-11T19:07:27.491Z,83.20
2018-10-11T19:09:55.933Z,83.70
2018-10-11T19:12:24.567Z,83.90
2018-10-11T19:14:53.173Z,84.50
2018-10-11T19:17:21.598Z,84.80
2018-10-11T19:19:50.005Z,84.70
2018-10-11T19:22:18.396Z,84.80
2018-10-11T19:24:46.873Z,85.00
2018-10-11T19:27:15.377Z,85.10
2018-10-11T19:29:43.933Z,85.30
2018-10-11T19:32:12.403Z,85.40
2018-10-11T19:34:40.816Z,85.60
2018-10-11T19:37:10.255Z,86.00
2018-10-11T19:39:38.661Z,86.40
2018-10-11T19:42:07.088Z,86.40
2018-10-11T19:44:42.157Z,86.40
2018-10-11T19:47:11.180Z,86.30
2018-10-11T19:49:39.625Z,86.20
2018-10-11T19:52:08.058Z,86.20
2018-10-11T19:54:36.635Z,86.60
2018-10-11T19:57:05.566Z,88.10
2018-10-11T19:59:34.169Z,89.00
2018-10-11T20:02:02.789Z,89.30
2018-10-11T20:04:31.186Z,89.90
2018-10-11T20:06:59.683Z,90.40
2018-10-11T20:09:28.154Z,89.90
2018-10-11T20:11:56.652Z,90.00
2018-10-11T20:14:26.127Z,89.80
2018-10-11T20:16:56.487Z,89.70
2018-10-11T20:19:25.062Z,90.00
2018-10-11T20:21:53.596Z,90.30
2018-10-11T20:24:22.046Z,90.90
2018-10-11T20:26:50.481Z,91.10
2018-10-11T20:29:19.125Z,90.80
2018-10-11T20:31:47.522Z,90.70
2018-10-11T20:34:15.936Z,90.20
2018-10-11T20:36:44.493Z,89.60
2018-10-11T20:39:13.064Z,89.60
2018-10-11T20:41:41.535Z,89.10
2018-10-11T20:44:10.044Z,89.00
2018-10-11T20:46:38.701Z,89.30
2018-10-11T20:49:07.461Z,89.40
2018-10-11T20:51:35.928Z,89.20
2018-10-11T20:54:04.538Z,89.90
2018-10-11T20:56:33.235Z,90.00
2018-10-11T20:59:01.719Z,90.20
2018-10-11T21:01:30.176Z,91.10
2018-10-11T21:03:59.534Z,90.60
2018-10-11T21:06:28.368Z,90.10
2018-10-11T21:08:56.853Z,89.50
2018-10-11T21:11:25.350Z,89.10
2018-10-11T21:13:53.814Z,88.70
2018-10-11T21:16:22.367Z,88.60
2018-10-11T21:18:50.832Z,88.50
2018-10-11T21:21:19.305Z,88.50
2018-10-11T21:23:48.606Z,88.60
2018-10-11T21:26:17.125Z,88.70
2018-10-11T21:28:45.643Z,88.70
2018-10-11T21:31:14.275Z,88.60
2018-10-11T21:33:43.457Z,88.60
2018-10-11T21:36:11.904Z,88.40
2018-10-11T21:38:40.812Z,88.20
2018-10-11T21:41:09.425Z,88.10
2018-10-11T21:43:37.910Z,88.10
2018-10-11T21:46:25.283Z,88.10
2018-10-11T21:48:54.726Z,87.90
2018-10-11T21:51:23.386Z,87.70
2018-10-11T21:53:52.230Z,87.00
2018-10-11T21:56:20.688Z,86.60
2018-10-11T21:58:49.308Z,86.40
2018-10-11T22:01:22.488Z,86.40
2018-10-11T22:03:51.837Z,85.90
2018-10-11T22:06:20.204Z,85.30
2018-10-11T22:08:48.666Z,85.30
2018-10-11T22:11:17.856Z,85.30
2018-10-11T22:13:49.487Z,85.10
2018-10-11T22:16:18.319Z,85.10
2018-10-11T22:18:47.075Z,85.40
2018-10-11T22:21:15.873Z,85.60
2018-10-11T22:23:44.387Z,85.60
2018-10-11T22:26:13.616Z,85.80
2018-10-11T22:28:42.101Z,86.10
2018-10-11T22:31:13.164Z,86.30
2018-10-11T22:33:42.440Z,86.40
2018-10-11T22:36:12.452Z,86.60
2018-10-11T22:38:41.440Z,86.90
2018-10-11T22:41:10.876Z,87.30
2018-10-11T22:43:39.411Z,87.70
2018-10-11T22:46:07.880Z,88.00
2018-10-11T22:48:36.520Z,88.40
2018-10-11T22:51:06.135Z,88.60
2018-10-11T22:53:34.599Z,88.70
2018-10-11T22:56:03.066Z,89.20
2018-10-11T22:58:31.985Z,89.40
2018-10-11T23:01:00.443Z,89.70
2018-10-11T23:03:29.017Z,89.90
2018-10-11T23:05:57.503Z,90.20
2018-10-11T23:08:25.908Z,90.40
2018-10-11T23:10:54.295Z,90.60
2018-10-11T23:13:22.780Z,90.80
2018-10-11T23:15:51.237Z,90.80
2018-10-11T23:18:19.722Z,91.00
2018-10-11T23:20:48.199Z,91.20
2018-10-11T23:23:16.684Z,91.20
2018-10-11T23:25:45.230Z,91.50
2018-10-11T23:28:13.697Z,91.80
2018-10-11T23:30:42.112Z,92.30
2018-10-11T23:33:10.562Z,92.50
2018-10-11T23:35:38.998Z,92.90
2018-10-11T23:38:07.421Z,93.30
2018-10-11T23:40:35.822Z,93.70
2018-10-11T23:43:04.220Z,94.00
2018-10-11T23:45:32.740Z,94.00
2018-10-11T23:48:01.260Z,94.30
2018-10-11T23:50:36.296Z,94.30
2018-10-11T23:53:04.793Z,94.50
2018-10-11T23:55:36.099Z,94.60
2018-10-11T23:58:04.598Z,94.50
